createdAt,value
2022-08-09T00:23:53.673Z,26.41
2022-08-09T00:38:07.887Z,25.72
2022-08-09T00:44:10.556Z,25.99
2022-08-09T00:55:02.590Z,25.78
2022-08-09T01:09:09.660Z,25.73
2022-08-09T01:30:58.248Z,25.43
2022-08-09T02:24:02.803Z,25.25
2022-08-09T06:46:04.687Z,25.79
2022-08-09T06:51:05.201Z,25.79
2022-08-09T06:54:29.306Z,25.83
2022-08-09T07:00:58.562Z,26.57
2022-08-09T07:03:31.237Z,26.29
2022-08-09T07:06:08.577Z,26.33
2022-08-09T07:08:39.635Z,26.71
2022-08-09T07:11:08.474Z,26.57
2022-08-09T07:13:45.130Z,26.57
2022-08-09T07:16:41.371Z,26.99
2022-08-09T07:22:10.951Z,26.66
2022-08-09T07:24:44.465Z,26.62
2022-08-09T07:27:33.357Z,26.64
2022-08-09T07:30:05.526Z,26.63
2022-08-09T07:32:40.670Z,26.64
2022-08-09T07:35:13.080Z,26.76
2022-08-09T07:37:48.075Z,26.86
2022-08-09T07:40:25.192Z,26.85
2022-08-09T07:42:59.519Z,26.90
2022-08-09T07:45:38.398Z,27.01
2022-08-09T07:48:25.836Z,27.05
2022-08-09T07:52:02.875Z,27.05
2022-08-09T07:54:06.692Z,27.49
2022-08-09T07:56:48.926Z,27.30
2022-08-09T07:59:33.810Z,27.38
2022-08-09T08:04:37.320Z,27.51
2022-08-09T08:07:57.100Z,27.60
2022-08-09T08:10:10.572Z,27.50
2022-08-09T08:12:45.621Z,27.50
2022-08-09T08:15:17.849Z,27.49
2022-08-09T08:17:58.629Z,27.50
2022-08-09T08:20:32.621Z,27.46
2022-08-09T08:23:16.868Z,27.51
2022-08-09T08:25:50.353Z,27.54
2022-08-09T08:28:38.053Z,27.47
2022-08-09T08:31:13.663Z,27.53
2022-08-09T08:36:29.036Z,27.70
2022-08-09T08:39:02.674Z,27.85
2022-08-09T08:41:50.628Z,27.91
2022-08-09T08:44:30.247Z,27.97
2022-08-09T08:47:12.400Z,28.06
2022-08-09T08:49:49.539Z,28.16
2022-08-09T08:55:13.743Z,28.21
2022-08-09T08:57:56.298Z,28.25
2022-08-09T09:00:30.137Z,28.35
2022-08-09T09:03:08.602Z,28.37
2022-08-09T09:05:59.855Z,28.58
2022-08-09T09:08:40.641Z,28.68
2022-08-09T09:11:17.510Z,28.83
2022-08-09T09:13:56.440Z,28.82
2022-08-09T09:16:39.193Z,28.98
2022-08-09T09:22:16.926Z,29.28
2022-08-09T09:26:04.125Z,29.44
2022-08-09T09:28:06.448Z,29.62
2022-08-09T09:30:54.739Z,29.72
2022-08-09T09:33:44.285Z,29.74
2022-08-09T09:36:22.018Z,29.85
2022-08-09T09:38:54.870Z,29.93
2022-08-09T09:41:48.843Z,29.92
2022-08-09T09:44:31.817Z,29.98
2022-08-09T09:47:10.582Z,30.14
2022-08-09T09:50:06.967Z,30.31
2022-08-09T09:52:36.527Z,30.46
2022-08-09T09:55:24.221Z,30.66
2022-08-09T09:58:18.036Z,30.72
2022-08-09T10:00:54.094Z,30.87
2022-08-09T10:03:57.216Z,30.84
2022-08-09T10:06:42.638Z,30.94
2022-08-09T10:09:22.522Z,31.10
2022-08-09T10:12:26.868Z,31.09
2022-08-09T10:14:52.000Z,31.10
2022-08-09T10:17:50.716Z,31.00
2022-08-09T10:20:32.875Z,31.13
2022-08-09T10:23:20.220Z,31.19
2022-08-09T10:26:07.794Z,31.24
2022-08-09T10:28:48.736Z,31.35
2022-08-09T10:34:10.829Z,31.58
2022-08-09T10:36:38.746Z,31.65
2022-08-09T10:41:38.327Z,31.75
2022-08-09T10:49:51.708Z,32.03
2022-08-09T10:52:44.756Z,32.09
2022-08-09T10:55:23.873Z,32.19
2022-08-09T10:58:00.128Z,32.24
2022-08-09T11:00:41.755Z,32.49
2022-08-09T11:03:49.671Z,32.59
2022-08-09T11:06:26.321Z,32.70
2022-08-09T11:08:59.569Z,32.69
2022-08-09T11:12:11.580Z,33.14
2022-08-09T11:14:53.039Z,33.15
2022-08-09T11:17:56.852Z,33.50
2022-08-09T11:20:49.765Z,34.41
2022-08-09T11:25:54.864Z,33.28
2022-08-09T11:28:33.860Z,33.23
2022-08-09T11:31:06.774Z,33.53
2022-08-09T11:33:50.286Z,33.74
2022-08-09T11:36:30.388Z,33.79
2022-08-09T11:39:11.085Z,33.98
2022-08-09T11:41:43.343Z,33.94
2022-08-09T11:44:23.443Z,34.07
2022-08-09T11:47:01.463Z,34.24
2022-08-09T11:53:02.870Z,35.17
2022-08-09T11:58:32.417Z,34.75
2022-08-09T12:03:57.472Z,34.79
2022-08-09T12:06:31.912Z,35.07
2022-08-09T12:09:04.397Z,35.66
2022-08-09T12:11:44.725Z,35.71
2022-08-09T12:15:04.697Z,36.73
2022-08-09T12:17:41.739Z,35.67
2022-08-09T12:20:19.841Z,35.50
2022-08-09T12:22:56.105Z,36.12
2022-08-09T12:25:35.874Z,35.32
2022-08-09T12:28:59.287Z,35.15
2022-08-09T12:33:59.183Z,35.03
2022-08-09T12:36:33.776Z,35.48
2022-08-09T12:39:05.932Z,35.29
2022-08-09T12:44:05.406Z,35.58
2022-08-09T12:46:48.782Z,35.48
2022-08-09T12:49:29.648Z,35.50
2022-08-09T12:52:02.465Z,35.56
2022-08-09T12:54:41.701Z,35.51
2022-08-09T12:57:12.823Z,35.74
2022-08-09T13:00:03.928Z,35.56
2022-08-09T13:02:53.401Z,35.89
2022-08-09T13:05:25.328Z,35.69
2022-08-09T13:10:52.490Z,35.34
2022-08-09T13:13:38.298Z,35.49
2022-08-09T13:16:20.602Z,35.66
2022-08-09T13:22:37.825Z,35.60
2022-08-09T13:24:52.853Z,35.75
2022-08-09T13:27:06.127Z,36.17
2022-08-09T13:30:02.920Z,36.49
2022-08-09T13:32:45.895Z,36.09
2022-08-09T13:37:53.470Z,36.68
2022-08-09T13:41:50.636Z,36.55
2022-08-09T13:43:15.464Z,36.41
2022-08-09T13:46:43.015Z,36.21
2022-08-09T13:51:11.668Z,36.00
2022-08-09T13:53:44.788Z,35.69
2022-08-09T13:56:14.380Z,35.71
2022-08-09T13:58:46.862Z,35.58
2022-08-09T14:02:00.536Z,35.39
2022-08-09T14:04:11.623Z,35.18
2022-08-09T14:06:43.877Z,34.94
2022-08-09T14:09:15.389Z,34.86
2022-08-09T14:11:47.972Z,34.80
2022-08-09T14:16:51.087Z,34.38
2022-08-09T14:19:20.397Z,34.56
2022-08-09T14:24:32.015Z,33.87
2022-08-09T14:27:02.210Z,33.26
2022-08-09T14:30:34.184Z,32.79
2022-08-09T14:32:38.037Z,32.30
2022-08-09T14:35:09.112Z,31.78
2022-08-09T14:38:01.867Z,31.35
2022-08-09T14:41:02.288Z,30.80
2022-08-09T14:43:47.275Z,30.20
2022-08-09T14:46:58.131Z,30.19
2022-08-09T14:51:53.306Z,29.94
2022-08-09T14:54:34.032Z,29.76
2022-08-09T14:57:11.881Z,29.67
2022-08-09T14:59:46.689Z,30.42
2022-08-09T15:02:19.539Z,29.61
2022-08-09T15:04:57.723Z,29.45
2022-08-09T15:07:28.132Z,29.13
2022-08-09T15:12:50.239Z,28.05
2022-08-09T15:18:06.328Z,27.87
2022-08-09T15:36:40.484Z,27.32
2022-08-09T15:42:14.781Z,27.94
2022-08-09T15:44:57.546Z,27.56
2022-08-09T15:47:51.460Z,27.87
2022-08-09T15:50:28.731Z,27.60
2022-08-09T15:53:07.095Z,27.63
2022-08-09T15:56:10.913Z,28.15
2022-08-09T15:58:40.230Z,28.23
2022-08-09T16:01:20.145Z,28.03
2022-08-09T16:03:51.071Z,27.94
2022-08-09T16:06:35.666Z,27.55
2022-08-09T16:12:15.747Z,27.27
2022-08-09T16:14:46.173Z,27.09
2022-08-09T16:17:39.412Z,26.93
2022-08-09T16:23:06.389Z,27.08
2022-08-09T16:25:49.813Z,27.28
2022-08-09T16:28:25.741Z,27.43
2022-08-09T16:36:30.961Z,27.44
2022-08-09T16:39:10.157Z,27.44
2022-08-09T16:42:04.049Z,27.57
2022-08-09T16:44:31.633Z,27.62
2022-08-09T16:48:40.061Z,27.42
2022-08-09T16:53:18.627Z,27.76
2022-08-09T16:58:50.663Z,27.82
2022-08-09T17:01:24.619Z,27.78
2022-08-09T17:03:55.519Z,28.01
2022-08-09T17:06:31.935Z,28.10
2022-08-09T17:09:17.614Z,27.95
2022-08-09T17:11:59.283Z,27.86
2022-08-09T17:14:33.943Z,28.07
2022-08-09T17:17:23.259Z,28.02
2022-08-09T17:20:28.496Z,27.82
2022-08-09T17:22:50.143Z,27.64
2022-08-09T17:25:23.435Z,27.66
2022-08-09T17:27:53.922Z,27.74
2022-08-09T17:33:01.412Z,27.33
2022-08-09T17:35:41.013Z,27.19
2022-08-09T17:38:24.308Z,27.27
2022-08-09T17:40:58.463Z,27.11
2022-08-09T17:43:33.722Z,27.57
2022-08-09T17:48:51.754Z,27.57
2022-08-09T17:51:22.164Z,27.76
2022-08-09T17:54:01.084Z,27.74
2022-08-09T18:02:10.817Z,27.41
2022-08-09T18:04:41.339Z,27.08
2022-08-09T18:07:23.214Z,26.98
2022-08-09T18:10:04.269Z,26.86
2022-08-09T18:12:40.773Z,26.95
2022-08-09T18:18:03.901Z,26.83
2022-08-09T18:21:00.059Z,26.44
2022-08-09T18:24:11.192Z,26.26
2022-08-09T18:26:14.723Z,26.16
2022-08-09T18:36:25.998Z,25.33
2022-08-09T18:41:53.031Z,25.59
2022-08-09T18:44:38.801Z,25.66
2022-08-09T18:49:59.941Z,26.02
2022-08-09T18:52:41.587Z,25.30
2022-08-09T19:00:26.955Z,25.60
2022-08-09T19:03:06.307Z,26.20
2022-08-09T19:06:02.202Z,25.74
2022-08-09T19:08:36.861Z,25.80
2022-08-09T19:11:12.502Z,25.68
2022-08-09T19:16:39.989Z,25.55
2022-08-09T19:22:06.411Z,25.73
2022-08-09T19:25:08.831Z,25.67
2022-08-09T19:30:22.232Z,25.60
2022-08-09T19:33:07.663Z,25.39
2022-08-09T19:35:56.478Z,25.34
2022-08-09T19:44:38.190Z,25.24
2022-08-09T19:47:22.837Z,25.22
2022-08-09T19:50:07.775Z,25.37
2022-08-09T19:52:49.344Z,25.36
2022-08-09T19:56:02.276Z,25.16
2022-08-09T19:58:31.338Z,25.43
2022-08-09T20:01:53.097Z,25.46
2022-08-09T20:07:57.009Z,25.34
2022-08-09T20:10:17.813Z,25.18
2022-08-09T20:12:52.179Z,25.06
2022-08-09T20:16:37.382Z,25.28
2022-08-09T20:18:22.668Z,25.27
2022-08-09T20:21:02.182Z,25.73
2022-08-09T20:26:15.461Z,25.25
2022-08-09T20:28:53.389Z,25.13
2022-08-09T20:31:27.595Z,25.12
2022-08-09T20:34:03.914Z,25.13
2022-08-09T20:36:44.920Z,25.58
2022-08-09T20:40:13.384Z,25.23
2022-08-09T20:42:19.376Z,25.14
2022-08-09T20:45:04.530Z,25.50
2022-08-09T20:47:56.107Z,25.13
2022-08-09T20:50:47.843Z,25.16
2022-08-09T20:53:22.691Z,25.03
2022-08-09T20:56:21.429Z,24.97
2022-08-09T20:58:58.863Z,24.91
2022-08-09T21:01:35.095Z,24.90
2022-08-09T21:06:55.580Z,24.74
2022-08-09T21:09:32.830Z,24.56
2022-08-09T21:12:17.931Z,24.17
2022-08-09T21:14:49.019Z,24.03
2022-08-09T21:18:23.974Z,24.10
2022-08-09T21:22:52.617Z,24.33
2022-08-09T21:25:44.235Z,24.21
2022-08-09T21:28:38.027Z,24.27
2022-08-09T21:31:17.803Z,24.29
2022-08-09T21:33:53.327Z,24.31
2022-08-09T21:36:28.892Z,24.35
2022-08-09T21:38:59.946Z,24.38
2022-08-09T21:44:33.322Z,24.00
2022-08-09T21:47:14.182Z,23.81
2022-08-09T21:50:22.935Z,24.03
2022-08-09T21:53:02.407Z,23.92
2022-08-09T21:55:34.123Z,23.87
2022-08-09T21:58:13.272Z,23.77
2022-08-09T22:00:48.576Z,23.72
2022-08-09T22:05:51.245Z,23.54
2022-08-09T22:08:22.930Z,23.51
2022-08-09T22:11:49.711Z,23.56
2022-08-09T22:16:14.900Z,23.69
2022-08-09T22:18:55.225Z,23.65
2022-08-09T22:21:50.308Z,24.01
2022-08-09T22:24:24.196Z,23.71
2022-08-09T22:26:54.237Z,24.13
2022-08-09T22:29:34.496Z,23.69
2022-08-09T22:35:02.246Z,23.95
2022-08-09T22:37:40.273Z,23.89
2022-08-09T22:40:20.035Z,24.02
2022-08-09T22:42:45.887Z,23.74
2022-08-09T22:48:12.120Z,23.84
2022-08-09T22:48:36.013Z,23.93
2022-08-09T22:51:23.912Z,23.87
2022-08-09T22:54:02.739Z,23.74
2022-08-09T22:56:34.076Z,23.77
2022-08-09T22:59:56.182Z,23.78
2022-08-09T23:02:01.774Z,23.74
2022-08-09T23:04:33.074Z,23.70
2022-08-09T23:08:23.392Z,23.66
2022-08-09T23:10:17.926Z,23.49
2022-08-09T23:12:47.123Z,23.43
2022-08-09T23:15:20.483Z,23.45
2022-08-09T23:17:54.369Z,23.32
2022-08-09T23:20:29.289Z,23.16
2022-08-09T23:23:02.028Z,22.96
2022-08-09T23:25:36.508Z,22.94
2022-08-09T23:30:52.084Z,23.20
2022-08-09T23:38:26.968Z,22.86
2022-08-09T23:40:56.782Z,22.75
2022-08-09T23:43:25.118Z,23.01
2022-08-09T23:46:09.727Z,22.87
2022-08-09T23:51:24.837Z,23.14
2022-08-09T23:53:55.144Z,23.07
2022-08-09T23:56:39.637Z,23.16
2022-08-09T23:59:21.395Z,23.16
